createdAt,value
2022-10-25T00:01:29.085Z,15.54
2022-10-25T00:03:56.920Z,15.54
2022-10-25T00:06:24.357Z,15.54
2022-10-25T00:08:51.630Z,15.55
2022-10-25T00:11:21.832Z,15.54
2022-10-25T00:13:51.026Z,15.53
2022-10-25T00:16:20.881Z,15.50
2022-10-25T00:18:48.194Z,15.52
2022-10-25T00:21:15.022Z,15.49
2022-10-25T00:23:42.026Z,15.50
2022-10-25T00:26:10.790Z,15.52
2022-10-25T00:28:37.659Z,15.52
2022-10-25T00:31:10.074Z,15.54
2022-10-25T00:33:38.145Z,15.56
2022-10-25T00:36:11.059Z,15.56
2022-10-25T00:38:38.191Z,15.56
2022-10-25T00:41:06.526Z,15.56
2022-10-25T00:43:42.440Z,15.56
2022-10-25T00:46:31.929Z,15.58
2022-10-25T00:49:08.721Z,15.59
2022-10-25T00:51:53.941Z,15.61
2022-10-25T00:54:26.669Z,15.62
2022-10-25T00:56:54.920Z,15.63
2022-10-25T00:59:27.227Z,15.61
2022-10-25T01:01:55.684Z,15.64
2022-10-25T01:04:26.873Z,15.63
2022-10-25T01:06:54.227Z,15.63
2022-10-25T01:09:26.245Z,15.63
2022-10-25T01:11:53.593Z,15.62
2022-10-25T01:14:21.105Z,15.63
2022-10-25T01:17:02.179Z,15.63
2022-10-25T01:19:56.785Z,15.62
2022-10-25T01:22:51.193Z,15.61
2022-10-25T01:25:39.618Z,15.61
2022-10-25T01:28:09.125Z,15.60
2022-10-25T01:31:14.275Z,15.61
2022-10-25T01:33:52.111Z,15.61
2022-10-25T01:36:36.907Z,15.60
2022-10-25T01:39:12.918Z,15.57
2022-10-25T01:42:12.837Z,15.55
2022-10-25T01:44:48.069Z,15.55
2022-10-25T01:47:23.000Z,15.53
2022-10-25T01:50:12.968Z,15.53
2022-10-25T01:52:39.941Z,15.53
2022-10-25T01:55:11.134Z,15.51
2022-10-25T01:57:44.056Z,15.49
2022-10-25T02:00:19.781Z,15.49
2022-10-25T02:03:04.808Z,15.48
2022-10-25T02:05:53.444Z,15.46
2022-10-25T02:08:51.291Z,15.44
2022-10-25T02:11:24.599Z,15.45
2022-10-25T02:14:20.180Z,15.43
2022-10-25T02:16:57.873Z,15.42
2022-10-25T02:19:31.775Z,15.42
2022-10-25T02:22:01.472Z,15.41
2022-10-25T02:24:30.504Z,15.40
2022-10-25T02:26:59.249Z,15.39
2022-10-25T02:29:30.179Z,15.38
2022-10-25T02:31:57.199Z,15.36
2022-10-25T02:34:24.434Z,15.35
2022-10-25T02:36:53.325Z,15.34
2022-10-25T02:39:22.116Z,15.35
2022-10-25T02:41:48.881Z,15.34
2022-10-25T02:44:15.735Z,15.33
2022-10-25T02:46:42.672Z,15.33
2022-10-25T02:49:09.513Z,15.30
2022-10-25T02:51:36.359Z,15.30
2022-10-25T02:54:03.332Z,15.29
2022-10-25T02:56:30.260Z,15.29
2022-10-25T02:58:58.293Z,15.27
2022-10-25T03:01:25.754Z,15.24
2022-10-25T03:03:52.836Z,15.24
2022-10-25T03:06:19.937Z,15.23
2022-10-25T03:08:46.838Z,15.21
2022-10-25T03:11:15.637Z,15.20
2022-10-25T03:13:42.654Z,15.19
2022-10-25T03:16:09.551Z,15.18
2022-10-25T03:18:36.378Z,15.17
2022-10-25T03:21:04.369Z,15.16
2022-10-25T03:23:31.201Z,15.16
2022-10-25T03:25:59.439Z,15.14
2022-10-25T03:28:27.580Z,15.14
2022-10-25T03:30:55.101Z,15.13
2022-10-25T03:33:22.167Z,15.11
2022-10-25T03:35:55.877Z,15.09
2022-10-25T03:38:22.755Z,15.09
2022-10-25T03:40:49.509Z,15.08
2022-10-25T03:43:16.310Z,15.04
2022-10-25T03:45:43.083Z,15.03
2022-10-25T03:48:09.856Z,15.01
2022-10-25T03:50:36.562Z,15.01
2022-10-25T03:53:04.173Z,15.00
2022-10-25T03:55:31.256Z,15.00
2022-10-25T03:57:58.887Z,15.00
2022-10-25T04:00:26.137Z,14.98
2022-10-25T04:03:01.733Z,14.97
2022-10-25T04:05:30.797Z,14.98
2022-10-25T04:07:58.346Z,14.96
2022-10-25T04:10:25.607Z,14.94
2022-10-25T04:12:54.559Z,14.93
2022-10-25T04:15:23.147Z,14.92
2022-10-25T04:17:51.316Z,14.91
2022-10-25T04:20:19.347Z,14.91
2022-10-25T04:22:46.196Z,14.89
2022-10-25T04:25:13.109Z,14.91
2022-10-25T04:27:39.851Z,14.88
2022-10-25T04:30:07.310Z,14.87
2022-10-25T04:32:34.158Z,14.85
2022-10-25T04:35:01.012Z,14.85
2022-10-25T04:37:27.821Z,14.84
2022-10-25T04:39:54.709Z,14.83
2022-10-25T04:42:21.544Z,14.82
2022-10-25T04:44:48.385Z,14.81
2022-10-25T04:47:15.145Z,14.79
2022-10-25T04:49:42.085Z,14.79
2022-10-25T04:52:09.010Z,14.80
2022-10-25T04:54:35.797Z,14.79
2022-10-25T04:57:02.714Z,14.77
2022-10-25T04:59:29.559Z,14.75
2022-10-25T05:01:56.355Z,14.74
2022-10-25T05:04:23.341Z,14.74
2022-10-25T05:06:50.188Z,14.73
2022-10-25T05:09:16.946Z,14.72
2022-10-25T05:11:43.742Z,14.71
2022-10-25T05:14:10.531Z,14.70
2022-10-25T05:16:39.231Z,14.69
2022-10-25T05:19:06.167Z,14.70
2022-10-25T05:21:33.078Z,14.69
2022-10-25T05:24:02.174Z,14.69
2022-10-25T05:26:31.164Z,14.69
2022-10-25T05:28:58.496Z,14.66
2022-10-25T05:31:27.883Z,14.67
2022-10-25T05:33:57.550Z,14.67
2022-10-25T05:36:25.444Z,14.67
2022-10-25T05:38:52.415Z,14.66
2022-10-25T05:41:19.714Z,14.64
2022-10-25T05:43:46.988Z,14.64
2022-10-25T05:46:19.644Z,14.63
2022-10-25T05:48:48.912Z,14.61
2022-10-25T05:51:35.797Z,14.62
2022-10-25T05:54:06.767Z,14.61
2022-10-25T05:56:34.741Z,14.60
2022-10-25T05:59:09.913Z,14.57
2022-10-25T06:01:47.298Z,14.58
2022-10-25T06:04:15.431Z,14.54
2022-10-25T06:06:43.420Z,14.56
2022-10-25T06:09:10.499Z,14.58
2022-10-25T06:11:38.064Z,14.57
2022-10-25T06:14:04.890Z,14.57
2022-10-25T06:16:32.200Z,14.57
2022-10-25T06:18:59.001Z,14.57
2022-10-25T06:21:28.099Z,14.58
2022-10-25T06:23:56.022Z,14.57
2022-10-25T06:26:26.051Z,14.58
2022-10-25T06:28:55.934Z,14.59
2022-10-25T06:31:23.389Z,14.59
2022-10-25T06:33:50.408Z,14.58
2022-10-25T06:36:19.654Z,14.58
2022-10-25T06:38:47.410Z,14.58
2022-10-25T06:41:19.173Z,14.58
2022-10-25T06:43:46.296Z,14.57
2022-10-25T06:46:28.159Z,14.57
2022-10-25T06:48:56.740Z,14.57
2022-10-25T06:51:24.670Z,14.56
2022-10-25T06:53:59.423Z,14.57
2022-10-25T06:56:28.045Z,14.57
2022-10-25T06:58:55.439Z,14.58
2022-10-25T07:01:23.993Z,14.59
2022-10-25T07:03:53.485Z,14.59
2022-10-25T07:06:29.401Z,14.59
2022-10-25T07:08:58.936Z,14.59
2022-10-25T07:11:27.218Z,14.60
2022-10-25T07:13:55.077Z,14.60
2022-10-25T07:16:22.100Z,14.61
2022-10-25T07:18:49.620Z,14.62
2022-10-25T07:21:19.066Z,14.63
2022-10-25T07:23:46.758Z,14.62
2022-10-25T07:26:16.374Z,14.63
2022-10-25T07:28:45.036Z,14.64
2022-10-25T07:31:13.533Z,14.64
2022-10-25T07:33:40.328Z,14.63
2022-10-25T07:36:11.258Z,14.65
2022-10-25T07:38:38.856Z,14.64
2022-10-25T07:41:05.783Z,14.64
2022-10-25T07:43:32.543Z,14.64
2022-10-25T07:45:59.320Z,14.63
2022-10-25T07:48:26.621Z,14.63
2022-10-25T07:50:53.448Z,14.64
2022-10-25T07:53:20.269Z,14.65
2022-10-25T07:55:55.270Z,14.66
2022-10-25T07:58:22.700Z,14.65
2022-10-25T08:00:49.748Z,14.66
2022-10-25T08:03:18.376Z,14.67
2022-10-25T08:05:47.136Z,14.70
2022-10-25T08:08:14.947Z,14.71
2022-10-25T08:10:43.587Z,14.71
2022-10-25T08:13:10.875Z,14.73
2022-10-25T08:15:37.991Z,14.75
2022-10-25T08:18:05.633Z,14.77
2022-10-25T08:20:56.763Z,14.79
2022-10-25T08:23:19.142Z,14.82
2022-10-25T08:25:46.263Z,14.84
2022-10-25T08:28:13.291Z,14.86
2022-10-25T08:30:41.071Z,14.87
2022-10-25T08:33:11.420Z,14.88
2022-10-25T08:35:38.811Z,14.91
2022-10-25T08:38:05.681Z,14.91
2022-10-25T08:40:47.386Z,14.93
2022-10-25T08:43:25.234Z,14.95
2022-10-25T08:46:06.048Z,14.96
2022-10-25T08:48:41.452Z,14.98
2022-10-25T08:51:24.912Z,15.00
2022-10-25T08:56:28.485Z,15.08
2022-10-25T08:58:58.326Z,15.11
2022-10-25T09:01:40.899Z,15.21
2022-10-25T09:04:07.857Z,15.29
2022-10-25T09:06:39.849Z,15.27
2022-10-25T09:09:44.406Z,15.27
2022-10-25T09:12:37.136Z,15.34
2022-10-25T09:15:09.781Z,15.39
2022-10-25T09:18:09.086Z,15.35
2022-10-25T09:20:45.686Z,15.47
2022-10-25T09:26:11.729Z,15.49
2022-10-25T09:28:49.617Z,15.47
2022-10-25T09:31:22.305Z,15.51
2022-10-25T09:33:53.828Z,15.51
2022-10-25T09:36:21.654Z,15.53
2022-10-25T09:39:00.127Z,15.62
2022-10-25T09:41:49.886Z,15.68
2022-10-25T09:44:35.574Z,15.70
2022-10-25T09:47:05.331Z,15.75
2022-10-25T09:49:40.835Z,15.75
2022-10-25T09:52:29.258Z,15.79
2022-10-25T09:55:14.744Z,15.83
2022-10-25T09:57:42.282Z,15.84
2022-10-25T10:00:14.268Z,15.89
2022-10-25T10:02:41.732Z,15.91
2022-10-25T10:05:20.314Z,15.94
2022-10-25T10:07:48.928Z,15.97
2022-10-25T10:10:21.073Z,16.00
2022-10-25T10:12:53.845Z,16.04
2022-10-25T10:15:29.813Z,16.08
2022-10-25T10:18:22.355Z,16.12
2022-10-25T10:21:13.722Z,16.17
2022-10-25T10:23:43.261Z,16.20
2022-10-25T10:26:25.053Z,16.23
2022-10-25T10:29:05.167Z,16.26
2022-10-25T10:31:42.529Z,16.29
2022-10-25T10:34:27.516Z,16.33
2022-10-25T10:37:12.686Z,16.37
2022-10-25T10:39:58.562Z,16.42
2022-10-25T10:42:37.878Z,16.46
2022-10-25T10:45:12.318Z,16.49
2022-10-25T10:47:51.366Z,16.51
2022-10-25T10:50:21.825Z,16.55
2022-10-25T10:53:17.903Z,16.59
2022-10-25T10:55:55.894Z,16.62
2022-10-25T10:58:27.086Z,16.65
2022-10-25T11:00:56.325Z,16.66
2022-10-25T11:03:35.072Z,16.70
2022-10-25T11:06:01.867Z,16.73
2022-10-25T11:08:28.659Z,16.75
2022-10-25T11:11:22.020Z,16.77
2022-10-25T11:13:55.826Z,16.80
2022-10-25T11:16:34.527Z,16.82
2022-10-25T11:19:19.391Z,16.85
2022-10-25T11:22:09.270Z,16.87
2022-10-25T11:25:20.903Z,16.90
2022-10-25T11:28:16.589Z,16.94
2022-10-25T11:31:13.675Z,16.97
2022-10-25T11:33:58.868Z,16.99
2022-10-25T11:36:36.970Z,17.01
2022-10-25T11:39:28.506Z,17.07
2022-10-25T11:42:12.179Z,17.10
2022-10-25T11:44:54.100Z,17.12
2022-10-25T11:47:43.209Z,17.15
2022-10-25T11:50:40.003Z,17.21
2022-10-25T11:53:33.771Z,17.23
2022-10-25T11:56:16.276Z,17.28
2022-10-25T11:58:59.417Z,17.31
2022-10-25T12:01:46.651Z,17.34
2022-10-25T12:04:53.416Z,17.38
2022-10-25T12:07:32.405Z,17.42
2022-10-25T12:09:59.113Z,17.46
2022-10-25T12:12:36.657Z,17.49
2022-10-25T12:15:04.100Z,17.53
2022-10-25T12:17:34.602Z,17.57
2022-10-25T12:20:05.546Z,17.60
2022-10-25T12:22:44.114Z,17.63
2022-10-25T12:25:38.283Z,17.67
2022-10-25T12:28:18.240Z,17.71
2022-10-25T12:30:46.787Z,17.73
2022-10-25T12:33:17.684Z,17.77
2022-10-25T12:35:50.216Z,17.78
2022-10-25T12:38:33.674Z,17.84
2022-10-25T12:41:18.026Z,17.86
2022-10-25T12:43:58.132Z,17.86
2022-10-25T12:46:48.034Z,17.89
2022-10-25T12:49:37.605Z,17.89
2022-10-25T12:52:26.353Z,17.91
2022-10-25T12:55:08.460Z,17.93
2022-10-25T12:57:53.684Z,17.95
2022-10-25T13:00:22.660Z,17.97
2022-10-25T13:03:18.561Z,17.98
2022-10-25T13:05:52.390Z,17.99
2022-10-25T13:08:22.143Z,18.01
2022-10-25T13:11:09.556Z,18.03
2022-10-25T13:13:47.711Z,18.05
2022-10-25T13:16:24.882Z,18.06
2022-10-25T13:19:16.480Z,18.09
2022-10-25T13:21:55.073Z,18.10
2022-10-25T13:24:37.366Z,18.14
2022-10-25T13:27:13.019Z,18.15
2022-10-25T13:30:00.817Z,18.17
2022-10-25T13:32:29.695Z,18.18
2022-10-25T13:34:59.467Z,18.16
2022-10-25T13:37:32.156Z,18.19
2022-10-25T13:40:29.995Z,18.23
2022-10-25T13:43:06.199Z,18.28
2022-10-25T13:45:39.185Z,18.33
2022-10-25T13:48:15.463Z,18.36
2022-10-25T13:51:02.821Z,18.37
2022-10-25T13:53:38.316Z,18.39
2022-10-25T13:56:09.387Z,18.41
2022-10-25T13:58:55.548Z,18.42
2022-10-25T14:01:24.289Z,18.45
2022-10-25T14:04:01.430Z,18.46
2022-10-25T14:06:34.168Z,18.48
2022-10-25T14:09:10.041Z,18.50
2022-10-25T14:11:51.503Z,18.51
2022-10-25T14:14:26.220Z,18.54
2022-10-25T14:16:53.502Z,18.59
2022-10-25T14:19:36.570Z,18.61
2022-10-25T14:22:10.571Z,18.63
2022-10-25T14:24:37.636Z,18.65
2022-10-25T14:27:04.436Z,18.68
2022-10-25T14:29:31.272Z,18.70
2022-10-25T14:31:58.715Z,18.74
2022-10-25T14:34:30.171Z,18.77
2022-10-25T14:36:58.599Z,18.80
2022-10-25T14:39:28.204Z,18.82
2022-10-25T14:42:00.011Z,18.84
2022-10-25T14:44:31.682Z,18.88
2022-10-25T14:47:00.309Z,18.91
2022-10-25T14:49:27.581Z,18.93
2022-10-25T14:52:00.114Z,18.95
2022-10-25T14:54:33.724Z,18.97
2022-10-25T14:57:10.477Z,18.99
2022-10-25T14:59:46.655Z,19.02
2022-10-25T15:02:21.600Z,19.05
2022-10-25T15:04:54.394Z,19.05
2022-10-25T15:07:25.735Z,19.05
2022-10-25T15:09:54.683Z,19.06
2022-10-25T15:12:26.810Z,19.04
2022-10-25T15:14:55.505Z,19.02
2022-10-25T15:17:22.281Z,19.01
2022-10-25T15:19:59.761Z,19.01
2022-10-25T15:22:32.896Z,18.99
2022-10-25T15:25:00.192Z,18.97
2022-10-25T15:27:35.289Z,18.95
2022-10-25T15:30:04.881Z,18.98
2022-10-25T15:32:32.128Z,18.98
2022-10-25T15:35:01.184Z,18.98
2022-10-25T15:37:29.668Z,18.97
2022-10-25T15:39:57.033Z,18.97
2022-10-25T15:42:25.636Z,18.94
2022-10-25T15:44:52.612Z,18.95
2022-10-25T15:47:23.002Z,18.94
2022-10-25T15:49:53.541Z,18.94
2022-10-25T15:52:21.290Z,18.93
2022-10-25T15:54:49.448Z,18.92
2022-10-25T15:57:17.270Z,18.91
2022-10-25T15:59:44.499Z,18.88
2022-10-25T16:02:21.258Z,18.86
2022-10-25T16:04:48.744Z,18.82
2022-10-25T16:07:15.908Z,18.80
2022-10-25T16:09:43.049Z,18.76
2022-10-25T16:12:18.757Z,18.73
2022-10-25T16:14:46.470Z,18.69
2022-10-25T16:17:14.048Z,18.66
2022-10-25T16:19:41.190Z,18.61
2022-10-25T16:22:08.162Z,18.57
2022-10-25T16:24:35.168Z,18.56
2022-10-25T16:27:02.320Z,18.52
2022-10-25T16:29:30.173Z,18.48
2022-10-25T16:31:57.258Z,18.39
2022-10-25T16:34:24.527Z,18.37
2022-10-25T16:36:52.749Z,18.36
2022-10-25T16:39:19.875Z,18.33
2022-10-25T16:41:48.143Z,18.30
2022-10-25T16:44:18.801Z,18.29
2022-10-25T16:46:46.595Z,18.26
2022-10-25T16:49:14.087Z,18.29
2022-10-25T16:51:42.030Z,18.26
2022-10-25T16:54:11.831Z,18.22
2022-10-25T16:56:42.981Z,18.19
2022-10-25T16:59:11.024Z,18.16
2022-10-25T17:01:42.441Z,18.12
2022-10-25T17:04:17.186Z,18.17
2022-10-25T17:06:45.235Z,18.16
2022-10-25T17:09:12.810Z,18.13
2022-10-25T17:11:43.506Z,18.06
2022-10-25T17:14:13.251Z,18.00
2022-10-25T17:16:43.529Z,17.97
2022-10-25T17:19:12.686Z,17.94
2022-10-25T17:21:40.488Z,17.92
2022-10-25T17:24:10.085Z,17.87
2022-10-25T17:26:38.606Z,17.85
2022-10-25T17:29:06.062Z,17.81
2022-10-25T17:31:34.454Z,17.75
2022-10-25T17:34:04.916Z,17.72
2022-10-25T17:36:32.868Z,17.67
2022-10-25T17:39:01.310Z,17.63
2022-10-25T17:41:29.055Z,17.61
2022-10-25T17:43:57.724Z,17.58
2022-10-25T17:46:29.674Z,17.53
2022-10-25T17:49:04.131Z,17.49
2022-10-25T17:51:33.616Z,17.45
2022-10-25T17:54:01.389Z,17.41
2022-10-25T17:58:58.610Z,17.30
2022-10-25T18:01:28.292Z,17.28
2022-10-25T18:03:56.323Z,17.26
2022-10-25T18:06:26.096Z,17.22
2022-10-25T18:08:55.981Z,17.21
2022-10-25T18:11:26.510Z,17.16
2022-10-25T18:13:57.620Z,17.10
2022-10-25T18:16:27.776Z,17.08
2022-10-25T18:18:58.040Z,17.08
2022-10-25T18:21:26.397Z,17.04
2022-10-25T18:23:55.573Z,16.98
2022-10-25T18:26:24.129Z,16.95
2022-10-25T18:28:52.530Z,16.95
2022-10-25T18:31:22.947Z,16.90
2022-10-25T18:33:51.899Z,16.83
2022-10-25T18:36:20.732Z,16.85
2022-10-25T18:38:49.949Z,16.82
2022-10-25T18:41:31.303Z,16.80
2022-10-25T18:43:59.803Z,16.76
2022-10-25T18:46:33.140Z,16.75
2022-10-25T18:49:02.052Z,16.73
2022-10-25T18:51:30.694Z,16.72
2022-10-25T18:54:01.728Z,16.69
2022-10-25T18:56:31.161Z,16.68
2022-10-25T18:59:00.470Z,16.67
2022-10-25T19:01:34.582Z,16.64
2022-10-25T19:04:04.631Z,16.62
2022-10-25T19:06:33.892Z,16.62
2022-10-25T19:09:03.152Z,16.58
2022-10-25T19:11:35.706Z,16.56
2022-10-25T19:14:07.456Z,16.54
2022-10-25T19:16:36.536Z,16.55
2022-10-25T19:19:07.522Z,16.52
2022-10-25T19:21:36.270Z,16.48
2022-10-25T19:24:05.014Z,16.42
2022-10-25T19:26:33.081Z,16.43
2022-10-25T19:29:01.851Z,16.48
2022-10-25T19:31:30.348Z,16.45
2022-10-25T19:34:00.851Z,16.41
2022-10-25T19:36:31.335Z,16.36
2022-10-25T19:39:01.931Z,16.34
2022-10-25T19:41:30.212Z,16.31
2022-10-25T19:43:59.139Z,16.26
2022-10-25T19:46:29.714Z,16.26
2022-10-25T19:49:00.769Z,16.22
2022-10-25T19:51:29.999Z,16.16
2022-10-25T19:53:59.476Z,16.12
2022-10-25T19:56:29.176Z,16.10
2022-10-25T19:58:57.870Z,16.07
2022-10-25T20:01:29.127Z,16.08
2022-10-25T20:03:59.032Z,16.01
2022-10-25T20:06:30.323Z,16.00
2022-10-25T20:09:01.226Z,15.95
2022-10-25T20:11:29.959Z,15.91
2022-10-25T20:13:59.593Z,15.86
2022-10-25T20:16:29.162Z,15.81
2022-10-25T20:18:59.166Z,15.78
2022-10-25T20:21:34.455Z,15.75
2022-10-25T20:24:08.516Z,15.72
2022-10-25T20:26:39.708Z,15.71
2022-10-25T20:29:17.092Z,15.65
2022-10-25T20:31:47.852Z,15.64
2022-10-25T20:34:16.020Z,15.60
2022-10-25T20:36:44.989Z,15.57
2022-10-25T20:39:13.900Z,15.56
2022-10-25T20:41:41.850Z,15.51
2022-10-25T20:44:10.374Z,15.49
2022-10-25T20:46:38.130Z,15.46
2022-10-25T20:49:08.426Z,15.43
2022-10-25T20:51:36.057Z,15.40
2022-10-25T20:54:09.470Z,15.33
2022-10-25T20:56:37.415Z,15.36
2022-10-25T20:59:04.633Z,15.30
2022-10-25T21:01:31.896Z,15.28
2022-10-25T21:03:58.914Z,15.24
2022-10-25T21:06:26.270Z,15.22
2022-10-25T21:08:53.221Z,15.18
2022-10-25T21:11:20.090Z,15.14
2022-10-25T21:13:46.994Z,15.12
2022-10-25T21:16:15.620Z,15.08
2022-10-25T21:18:43.332Z,15.01
2022-10-25T21:21:18.010Z,15.01
2022-10-25T21:23:48.767Z,14.96
2022-10-25T21:26:16.059Z,14.91
2022-10-25T21:28:43.266Z,14.92
2022-10-25T21:31:13.003Z,14.89
2022-10-25T21:33:41.893Z,14.86
2022-10-25T21:36:14.254Z,14.81
2022-10-25T21:38:42.269Z,14.74
2022-10-25T21:41:16.284Z,14.77
2022-10-25T21:43:45.776Z,14.70
2022-10-25T21:46:13.682Z,14.66
2022-10-25T21:48:40.849Z,14.63
2022-10-25T21:51:08.401Z,14.59
2022-10-25T21:53:35.546Z,14.56
2022-10-25T21:56:14.339Z,14.50
2022-10-25T21:58:42.989Z,14.47
2022-10-25T22:01:15.227Z,14.40
2022-10-25T22:03:42.326Z,14.41
2022-10-25T22:06:11.477Z,14.39
2022-10-25T22:08:38.593Z,14.34
2022-10-25T22:11:17.330Z,14.32
2022-10-25T22:13:44.529Z,14.26
2022-10-25T22:16:17.626Z,14.22
2022-10-25T22:18:50.879Z,14.19
2022-10-25T22:21:18.026Z,14.14
2022-10-25T22:23:44.967Z,14.13
2022-10-25T22:26:14.039Z,14.14
2022-10-25T22:28:41.479Z,14.10
2022-10-25T22:31:11.503Z,14.07
2022-10-25T22:33:39.217Z,14.03
2022-10-25T22:36:09.145Z,14.01
2022-10-25T22:38:36.551Z,13.99
2022-10-25T22:41:06.693Z,13.94
2022-10-25T22:43:35.464Z,13.96
2022-10-25T22:46:04.599Z,14.00
2022-10-25T22:48:36.799Z,13.95
2022-10-25T22:51:04.626Z,13.98
2022-10-25T22:53:32.102Z,13.97
2022-10-25T22:56:01.569Z,13.92
2022-10-25T22:58:32.743Z,13.89
2022-10-25T23:03:39.729Z,13.86
2022-10-25T23:06:11.574Z,13.83
2022-10-25T23:08:38.704Z,13.78
2022-10-25T23:11:15.915Z,13.76
2022-10-25T23:13:43.365Z,13.72
2022-10-25T23:16:11.443Z,13.74
2022-10-25T23:18:38.929Z,13.69
2022-10-25T23:21:09.974Z,13.60
2022-10-25T23:23:38.904Z,13.57
2022-10-25T23:28:35.294Z,13.56
2022-10-25T23:31:10.636Z,13.55
2022-10-25T23:33:38.254Z,13.52
2022-10-25T23:36:17.013Z,13.49
2022-10-25T23:38:44.584Z,13.46
2022-10-25T23:41:12.100Z,13.44
2022-10-25T23:43:39.619Z,13.39
2022-10-25T23:46:07.515Z,13.36
2022-10-25T23:48:34.883Z,13.33
2022-10-25T23:51:08.067Z,13.34
2022-10-25T23:53:35.763Z,13.29
2022-10-25T23:56:04.223Z,13.24
2022-10-25T23:58:31.167Z,13.20
